createdAt,value
2017-11-01T00:02:21.098Z,99.90
2017-11-01T00:04:48.535Z,99.90
2017-11-01T00:07:15.946Z,99.90
2017-11-01T00:09:43.358Z,99.90
2017-11-01T00:12:11.538Z,99.90
2017-11-01T00:14:39.714Z,99.90
2017-11-01T00:17:07.129Z,99.90
2017-11-01T00:19:34.533Z,99.90
2017-11-01T00:22:01.954Z,99.90
2017-11-01T00:24:29.359Z,99.90
2017-11-01T00:26:56.774Z,99.90
2017-11-01T00:29:24.946Z,99.90
2017-11-01T00:31:53.125Z,99.90
2017-11-01T00:34:21.301Z,99.90
2017-11-01T00:36:48.701Z,99.90
2017-11-01T00:39:16.107Z,99.90
2017-11-01T00:41:43.521Z,99.90
2017-11-01T00:44:10.922Z,99.90
2017-11-01T00:46:39.113Z,99.90
2017-11-01T00:49:06.522Z,99.90
2017-11-01T00:51:33.932Z,99.90
2017-11-01T00:54:01.337Z,99.90
2017-11-01T00:56:28.740Z,99.90
2017-11-01T00:58:56.166Z,99.90
2017-11-01T01:01:23.564Z,99.90
2017-11-01T01:03:51.627Z,99.90
2017-11-01T01:06:19.777Z,99.90
2017-11-01T01:08:47.954Z,99.90
2017-11-01T01:11:16.135Z,99.90
2017-11-01T01:13:45.294Z,99.90
2017-11-01T01:16:12.706Z,99.90
2017-11-01T01:18:40.114Z,99.90
2017-11-01T01:21:07.528Z,99.90
2017-11-01T01:23:34.943Z,99.90
2017-11-01T01:26:03.118Z,99.90
2017-11-01T01:28:31.306Z,99.90
2017-11-01T01:30:59.477Z,99.90
2017-11-01T01:33:27.661Z,99.90
2017-11-01T01:35:55.832Z,99.90
2017-11-01T01:38:24.011Z,99.90
2017-11-01T01:40:51.415Z,99.90
2017-11-01T01:43:18.834Z,99.90
2017-11-01T01:45:46.244Z,99.90
2017-11-01T01:48:13.646Z,99.90
2017-11-01T01:50:41.055Z,99.90
2017-11-01T01:53:08.461Z,99.90
2017-11-01T01:55:35.865Z,99.90
2017-11-01T01:58:03.268Z,99.90
2017-11-01T02:00:30.674Z,99.90
2017-11-01T02:02:58.085Z,99.90
2017-11-01T02:05:25.490Z,99.90
2017-11-01T02:07:52.896Z,99.90
2017-11-01T02:10:20.302Z,99.90
2017-11-01T02:12:47.712Z,99.90
2017-11-01T02:15:15.113Z,99.90
2017-11-01T02:17:42.518Z,99.90
2017-11-01T02:20:09.933Z,99.90
2017-11-01T02:22:37.338Z,99.90
2017-11-01T02:25:04.742Z,99.90
2017-11-01T02:27:32.909Z,99.90
2017-11-01T02:30:00.331Z,99.90
2017-11-01T02:32:27.734Z,99.90
2017-11-01T02:34:55.914Z,99.90
2017-11-01T02:37:24.086Z,99.90
2017-11-01T02:39:52.269Z,99.90
2017-11-01T02:42:19.674Z,99.90
2017-11-01T02:44:47.090Z,99.90
2017-11-01T02:47:14.499Z,99.90
2017-11-01T02:49:41.912Z,99.90
2017-11-01T02:52:09.314Z,99.90
2017-11-01T02:54:36.732Z,99.90
2017-11-01T02:57:04.128Z,99.90
2017-11-01T02:59:31.544Z,99.90
2017-11-01T03:02:00.905Z,99.90
2017-11-01T03:04:29.089Z,99.90
2017-11-01T03:06:57.277Z,99.90
2017-11-01T03:09:24.673Z,99.90
2017-11-01T03:11:52.082Z,99.90
2017-11-01T03:14:19.492Z,99.90
2017-11-01T03:16:46.898Z,99.90
2017-11-01T03:19:14.302Z,99.90
2017-11-01T03:21:41.713Z,99.90
2017-11-01T03:24:09.118Z,99.90
2017-11-01T03:26:36.529Z,99.90
2017-11-01T03:29:03.946Z,99.90
2017-11-01T03:31:31.351Z,99.90
2017-11-01T03:33:58.762Z,99.90
2017-11-01T03:36:26.933Z,99.90
2017-11-01T03:38:55.103Z,99.90
2017-11-01T03:41:22.518Z,99.90
2017-11-01T03:43:49.927Z,99.90
2017-11-01T03:46:18.117Z,99.90
2017-11-01T03:48:45.518Z,99.90
2017-11-01T03:51:12.922Z,99.90
2017-11-01T03:53:41.093Z,99.90
2017-11-01T03:56:09.267Z,99.90
2017-11-01T03:58:37.441Z,99.90
2017-11-01T04:01:05.622Z,99.90
2017-11-01T04:03:33.401Z,99.90
2017-11-01T04:06:00.806Z,99.90
2017-11-01T04:08:28.214Z,99.90
2017-11-01T04:10:55.622Z,99.90
2017-11-01T04:13:23.038Z,99.90
2017-11-01T04:15:50.434Z,99.90
2017-11-01T04:18:20.787Z,99.90
2017-11-01T04:20:48.957Z,99.90
2017-11-01T04:23:17.134Z,99.90
2017-11-01T04:25:45.301Z,99.90
2017-11-01T04:28:13.485Z,99.90
2017-11-01T04:30:40.883Z,99.90
2017-11-01T04:33:08.292Z,99.90
2017-11-01T04:35:35.698Z,99.90
2017-11-01T04:38:03.102Z,99.90
2017-11-01T04:40:31.283Z,99.90
2017-11-01T04:42:58.711Z,99.90
2017-11-01T04:45:26.122Z,99.90
2017-11-01T04:47:53.527Z,99.90
2017-11-01T04:50:21.706Z,99.90
2017-11-01T04:52:49.878Z,99.90
2017-11-01T04:55:18.050Z,99.90
2017-11-01T04:57:46.226Z,99.90
2017-11-01T05:00:19.258Z,99.90
2017-11-01T05:02:46.670Z,99.90
2017-11-01T05:05:15.771Z,99.90
2017-11-01T05:07:43.937Z,99.90
2017-11-01T05:10:15.965Z,99.90
2017-11-01T05:12:44.260Z,99.90
2017-11-01T05:15:13.443Z,99.90
2017-11-01T05:17:42.487Z,99.90
2017-11-01T05:20:09.924Z,99.90
2017-11-01T05:22:38.090Z,99.90
2017-11-01T05:25:07.437Z,99.90
2017-11-01T05:27:34.849Z,99.90
2017-11-01T05:30:02.257Z,99.90
2017-11-01T05:32:29.670Z,99.90
2017-11-01T05:34:57.093Z,99.90
2017-11-01T05:37:24.494Z,99.90
2017-11-01T05:39:52.667Z,99.90
2017-11-01T05:42:20.846Z,99.90
2017-11-01T05:44:48.257Z,99.90
2017-11-01T05:47:15.669Z,99.90
2017-11-01T05:49:43.081Z,99.90
2017-11-01T05:52:10.491Z,99.90
2017-11-01T05:54:37.893Z,99.90
2017-11-01T05:57:05.303Z,99.90
2017-11-01T05:59:32.701Z,99.90
2017-11-01T06:02:00.114Z,99.90
2017-11-01T06:04:27.519Z,99.90
2017-11-01T06:06:54.932Z,99.90
2017-11-01T06:09:22.337Z,99.90
2017-11-01T06:11:49.737Z,99.90
2017-11-01T06:14:17.146Z,99.90
2017-11-01T06:16:44.553Z,99.90
2017-11-01T06:19:11.981Z,99.90
2017-11-01T06:21:40.146Z,99.90
2017-11-01T06:24:08.334Z,99.90
2017-11-01T06:26:35.726Z,99.90
2017-11-01T06:29:03.137Z,99.90
2017-11-01T06:31:30.542Z,99.90
2017-11-01T06:33:57.967Z,99.90
2017-11-01T06:36:25.370Z,99.90
2017-11-01T06:38:52.779Z,99.90
2017-11-01T06:41:20.990Z,99.90
2017-11-01T06:43:48.402Z,99.90
2017-11-01T06:46:15.801Z,99.90
2017-11-01T06:48:43.213Z,99.90
2017-11-01T06:51:10.622Z,99.90
2017-11-01T06:53:38.022Z,99.90
2017-11-01T06:56:05.437Z,99.90
2017-11-01T06:58:32.853Z,99.90
2017-11-01T07:01:00.266Z,99.90
2017-11-01T07:03:28.429Z,99.90
2017-11-01T07:05:55.842Z,99.90
2017-11-01T07:08:29.883Z,99.90
2017-11-01T07:10:57.298Z,99.90
2017-11-01T07:13:24.702Z,99.90
2017-11-01T07:15:52.130Z,99.90
2017-11-01T07:18:19.543Z,99.90
2017-11-01T07:20:47.718Z,99.90
2017-11-01T07:23:15.898Z,99.90
2017-11-01T07:25:43.305Z,99.90
2017-11-01T07:28:10.713Z,99.90
2017-11-01T07:30:38.124Z,99.90
2017-11-01T07:33:06.309Z,99.90
2017-11-01T07:35:33.729Z,99.90
2017-11-01T07:38:01.139Z,99.90
2017-11-01T07:40:29.336Z,99.90
2017-11-01T07:42:56.743Z,99.90
2017-11-01T07:45:24.169Z,99.90
2017-11-01T07:47:51.578Z,99.90
2017-11-01T07:50:19.752Z,99.90
2017-11-01T07:52:47.926Z,99.90
2017-11-01T07:55:16.107Z,99.90
2017-11-01T07:57:44.294Z,99.90
2017-11-01T08:00:11.702Z,99.90
2017-11-01T08:02:39.106Z,99.90
2017-11-01T08:05:06.509Z,99.90
2017-11-01T08:07:33.918Z,99.90
2017-11-01T08:10:01.331Z,99.90
2017-11-01T08:12:28.742Z,99.90
2017-11-01T08:14:56.155Z,99.90
2017-11-01T08:17:23.569Z,99.90
2017-11-01T08:19:50.980Z,99.90
2017-11-01T08:22:19.166Z,99.90
2017-11-01T08:24:46.569Z,99.90
2017-11-01T08:27:13.981Z,99.90
2017-11-01T08:29:41.396Z,99.90
2017-11-01T08:32:08.800Z,99.90
2017-11-01T08:34:36.209Z,99.90
2017-11-01T08:37:03.645Z,99.90
2017-11-01T08:39:31.050Z,99.90
2017-11-01T08:41:59.239Z,99.90
2017-11-01T08:44:26.664Z,99.90
2017-11-01T08:46:54.061Z,99.90
2017-11-01T08:49:21.478Z,99.90
2017-11-01T08:51:49.653Z,99.90
2017-11-01T08:54:17.850Z,99.90
2017-11-01T08:56:45.257Z,99.90
2017-11-01T08:59:12.676Z,99.90
2017-11-01T09:01:40.077Z,99.90
2017-11-01T09:04:07.505Z,99.90
2017-11-01T09:06:34.922Z,99.90
2017-11-01T09:09:03.104Z,99.90
2017-11-01T09:11:31.278Z,99.90
2017-11-01T09:13:58.688Z,99.90
2017-11-01T09:16:26.114Z,99.90
2017-11-01T09:18:53.513Z,99.90
2017-11-01T09:21:20.933Z,99.90
2017-11-01T09:23:48.342Z,99.90
2017-11-01T09:26:16.521Z,99.90
2017-11-01T09:28:44.697Z,99.90
2017-11-01T09:31:12.113Z,99.90
2017-11-01T09:33:39.525Z,99.90
2017-11-01T09:36:06.938Z,99.90
2017-11-01T09:38:34.351Z,99.90
2017-11-01T09:41:01.761Z,99.90
2017-11-01T09:43:29.945Z,99.90
2017-11-01T09:45:58.146Z,99.90
2017-11-01T09:48:25.557Z,99.90
2017-11-01T09:50:52.962Z,99.90
2017-11-01T09:53:20.374Z,99.90
2017-11-01T09:55:48.549Z,99.90
2017-11-01T09:58:16.729Z,99.90
2017-11-01T10:00:44.907Z,99.90
2017-11-01T10:03:13.091Z,99.90
2017-11-01T10:05:40.502Z,99.90
2017-11-01T10:08:07.913Z,99.90
2017-11-01T10:10:35.326Z,98.70
2017-11-01T10:13:02.749Z,98.40
2017-11-01T10:15:30.163Z,98.30
2017-11-01T10:17:58.342Z,97.20
2017-11-01T10:20:26.517Z,97.00
2017-11-01T10:22:53.932Z,97.00
2017-11-01T10:25:21.338Z,95.90
2017-11-01T10:27:48.746Z,95.00
2017-11-01T10:30:16.161Z,94.90
2017-11-01T10:32:43.578Z,95.70
2017-11-01T10:35:11.769Z,93.70
2017-11-01T10:37:39.954Z,93.40
2017-11-01T10:40:07.366Z,93.40
2017-11-01T10:42:35.546Z,92.80
2017-11-01T10:45:02.966Z,92.70
2017-11-01T10:47:30.375Z,92.30
2017-11-01T10:49:58.553Z,93.20
2017-11-01T10:52:26.738Z,92.40
2017-11-01T10:54:54.162Z,92.40
2017-11-01T10:57:21.565Z,93.50
2017-11-01T10:59:48.993Z,92.70
2017-11-01T11:02:17.166Z,91.20
2017-11-01T11:04:45.353Z,90.40
2017-11-01T11:07:12.766Z,90.30
2017-11-01T11:09:40.185Z,90.20
2017-11-01T11:12:07.605Z,89.60
2017-11-01T11:14:35.009Z,88.70
2017-11-01T11:17:02.423Z,90.30
2017-11-01T11:19:30.602Z,91.20
2017-11-01T11:21:58.016Z,91.10
2017-11-01T11:24:25.441Z,90.60
2017-11-01T11:26:52.844Z,90.40
2017-11-01T11:29:20.256Z,89.50
2017-11-01T11:31:47.675Z,87.40
2017-11-01T11:34:15.849Z,86.20
2017-11-01T11:36:44.034Z,86.40
2017-11-01T11:39:12.205Z,83.90
2017-11-01T11:41:39.613Z,83.80
2017-11-01T11:44:07.041Z,82.30
2017-11-01T11:46:34.463Z,83.10
2017-11-01T11:49:01.858Z,84.70
2017-11-01T11:51:29.279Z,83.90
2017-11-01T11:53:57.462Z,81.40
2017-11-01T11:56:24.874Z,81.40
2017-11-01T11:58:52.287Z,81.20
2017-11-01T12:01:19.693Z,81.00
2017-11-01T12:03:47.111Z,79.60
2017-11-01T12:06:14.523Z,80.00
2017-11-01T12:08:42.704Z,80.90
2017-11-01T12:11:10.881Z,80.30
2017-11-01T12:13:39.054Z,80.50
2017-11-01T12:16:07.230Z,80.10
2017-11-01T12:18:35.405Z,81.00
2017-11-01T12:21:03.590Z,78.50
2017-11-01T12:23:30.995Z,78.50
2017-11-01T12:25:58.414Z,78.40
2017-11-01T12:28:25.828Z,76.60
2017-11-01T12:30:53.246Z,74.80
2017-11-01T12:33:20.658Z,74.20
2017-11-01T12:35:48.841Z,74.40
2017-11-01T12:38:16.245Z,74.30
2017-11-01T12:40:43.671Z,74.20
2017-11-01T12:43:11.078Z,75.20
2017-11-01T12:45:38.490Z,74.50
2017-11-01T12:48:05.905Z,76.00
2017-11-01T12:50:34.106Z,75.00
2017-11-01T12:53:01.506Z,74.80
2017-11-01T12:55:28.925Z,75.00
2017-11-01T12:57:56.333Z,74.60
2017-11-01T13:00:23.741Z,73.70
2017-11-01T13:02:51.163Z,73.00
2017-11-01T13:05:19.334Z,73.80
2017-11-01T13:07:47.523Z,73.10
2017-11-01T13:10:14.937Z,73.10
2017-11-01T13:12:42.358Z,75.90
2017-11-01T13:15:09.770Z,77.60
2017-11-01T13:17:37.962Z,83.30
2017-11-01T13:20:05.367Z,83.10
2017-11-01T13:22:32.794Z,85.20
2017-11-01T13:25:00.198Z,88.00
2017-11-01T13:27:27.610Z,86.20
2017-11-01T13:29:55.023Z,84.30
2017-11-01T13:32:23.198Z,86.20
2017-11-01T13:34:51.449Z,88.60
2017-11-01T13:37:18.867Z,88.60
2017-11-01T13:39:46.349Z,90.30
2017-11-01T13:42:13.760Z,90.20
2017-11-01T13:44:41.178Z,91.30
2017-11-01T13:47:08.592Z,92.10
2017-11-01T13:49:36.008Z,91.00
2017-11-01T13:52:04.177Z,91.40
2017-11-01T13:54:32.362Z,91.60
2017-11-01T13:57:00.552Z,91.30
2017-11-01T13:59:28.043Z,91.30
2017-11-01T14:01:55.459Z,91.10
2017-11-01T14:04:23.634Z,89.20
2017-11-01T14:06:51.043Z,89.20
2017-11-01T14:09:18.456Z,87.90
2017-11-01T14:11:45.862Z,88.90
2017-11-01T14:14:13.287Z,89.60
2017-11-01T14:16:40.691Z,90.70
2017-11-01T14:19:08.120Z,90.20
2017-11-01T14:21:35.518Z,90.70
2017-11-01T14:24:03.697Z,93.10
2017-11-01T14:26:31.891Z,94.80
2017-11-01T14:28:59.290Z,94.80
2017-11-01T14:31:26.712Z,94.90
2017-11-01T14:33:54.118Z,95.00
2017-11-01T14:36:22.302Z,96.20
2017-11-01T14:38:50.472Z,96.90
2017-11-01T14:41:18.659Z,98.60
2017-11-01T14:43:46.865Z,99.90
2017-11-01T14:46:14.274Z,99.90
2017-11-01T14:48:41.682Z,99.90
2017-11-01T14:51:09.106Z,99.90
2017-11-01T14:53:36.513Z,99.90
2017-11-01T14:56:03.930Z,99.90
2017-11-01T14:58:31.342Z,99.90
2017-11-01T15:00:58.751Z,99.90
2017-11-01T15:03:26.160Z,99.90
2017-11-01T15:05:53.567Z,99.90
2017-11-01T15:08:20.987Z,99.90
2017-11-01T15:10:49.165Z,99.90
2017-11-01T15:13:17.338Z,99.90
2017-11-01T15:15:45.523Z,99.90
2017-11-01T15:18:12.946Z,99.90
2017-11-01T15:20:40.361Z,99.90
2017-11-01T15:23:07.766Z,99.90
2017-11-01T15:25:35.181Z,99.90
2017-11-01T15:28:02.589Z,99.90
2017-11-01T15:30:30.774Z,99.90
2017-11-01T15:32:58.180Z,99.90
2017-11-01T15:35:25.585Z,99.90
2017-11-01T15:37:52.996Z,99.90
2017-11-01T15:40:20.410Z,99.90
2017-11-01T15:42:47.822Z,99.90
2017-11-01T15:45:15.234Z,99.90
2017-11-01T15:47:42.648Z,99.90
2017-11-01T15:50:10.834Z,99.90
2017-11-01T15:52:39.186Z,99.90
2017-11-01T15:55:06.598Z,99.90
2017-11-01T15:57:34.010Z,99.90
2017-11-01T16:00:02.208Z,99.90
2017-11-01T16:02:29.614Z,99.90
2017-11-01T16:04:57.036Z,99.90
2017-11-01T16:07:24.438Z,99.90
2017-11-01T16:09:51.863Z,99.90
2017-11-01T16:12:19.278Z,99.90
2017-11-01T16:14:47.462Z,99.90
2017-11-01T16:17:14.874Z,99.90
2017-11-01T16:19:42.297Z,99.90
2017-11-01T16:22:09.702Z,99.90
2017-11-01T16:24:37.873Z,99.90
2017-11-01T16:27:05.285Z,99.90
2017-11-01T16:29:32.701Z,99.90
2017-11-01T16:32:00.881Z,99.90
2017-11-01T16:34:28.294Z,99.90
2017-11-01T16:36:55.713Z,99.90
2017-11-01T16:39:23.129Z,99.90
2017-11-01T16:41:51.316Z,99.90
2017-11-01T16:44:19.499Z,99.90
2017-11-01T16:46:46.905Z,99.90
2017-11-01T16:49:14.317Z,99.90
2017-11-01T16:51:41.732Z,99.90
2017-11-01T16:54:09.143Z,99.90
2017-11-01T16:56:36.581Z,99.90
2017-11-01T16:59:03.994Z,99.90
2017-11-01T17:01:31.395Z,99.90
2017-11-01T17:03:58.801Z,99.90
2017-11-01T17:06:26.209Z,99.90
2017-11-01T17:08:53.626Z,99.90
2017-11-01T17:11:21.027Z,99.90
2017-11-01T17:13:48.437Z,99.90
2017-11-01T17:16:15.852Z,99.90
2017-11-01T17:18:43.271Z,99.90
2017-11-01T17:21:11.444Z,99.90
2017-11-01T17:23:39.626Z,99.90
2017-11-01T17:26:07.034Z,99.90
2017-11-01T17:28:34.449Z,99.90
2017-11-01T17:31:01.854Z,99.90
2017-11-01T17:33:29.266Z,99.90
2017-11-01T17:35:57.782Z,99.90
2017-11-01T17:38:25.193Z,99.90
2017-11-01T17:40:52.603Z,99.90
2017-11-01T17:43:20.024Z,99.90
2017-11-01T17:45:47.421Z,99.90
2017-11-01T17:48:14.841Z,99.90
2017-11-01T17:50:42.243Z,99.90
2017-11-01T17:53:09.653Z,99.90
2017-11-01T17:55:37.066Z,99.90
2017-11-01T17:58:05.272Z,99.90
2017-11-01T18:00:32.666Z,99.90
2017-11-01T18:03:00.074Z,99.90
2017-11-01T18:05:27.478Z,99.90
2017-11-01T18:07:54.877Z,99.90
2017-11-01T18:10:22.279Z,99.90
2017-11-01T18:12:49.694Z,99.90
2017-11-01T18:15:17.094Z,99.90
2017-11-01T18:17:44.506Z,99.90
2017-11-01T18:20:11.913Z,99.90
2017-11-01T18:22:39.465Z,99.90
2017-11-01T18:25:06.865Z,99.90
2017-11-01T18:27:35.046Z,99.90
2017-11-01T18:30:03.219Z,99.90
2017-11-01T18:32:30.629Z,99.90
2017-11-01T18:34:58.029Z,99.90
2017-11-01T18:37:26.202Z,99.90
2017-11-01T18:39:54.385Z,99.90
2017-11-01T18:42:21.786Z,99.90
2017-11-01T18:44:49.203Z,99.90
2017-11-01T18:47:16.610Z,99.90
2017-11-01T18:49:44.019Z,99.90
2017-11-01T18:52:11.438Z,99.90
2017-11-01T18:54:38.841Z,99.90
2017-11-01T18:57:06.257Z,99.90
2017-11-01T18:59:34.426Z,99.90
2017-11-01T19:02:02.589Z,99.90
2017-11-01T19:04:30.006Z,99.90
2017-11-01T19:06:57.419Z,99.90
2017-11-01T19:09:25.602Z,99.90
2017-11-01T19:11:53.001Z,99.90
2017-11-01T19:14:20.418Z,99.90
2017-11-01T19:16:47.832Z,99.90
2017-11-01T19:19:15.238Z,99.90
2017-11-01T19:21:42.642Z,99.90
2017-11-01T19:24:10.817Z,99.90
2017-11-01T19:26:38.221Z,99.90
2017-11-01T19:29:05.634Z,99.90
2017-11-01T19:31:33.045Z,99.90
2017-11-01T19:34:00.461Z,99.90
2017-11-01T19:36:28.630Z,99.90
2017-11-01T19:38:56.821Z,99.90
2017-11-01T19:41:24.998Z,99.90
2017-11-01T19:43:53.165Z,99.90
2017-11-01T19:46:21.352Z,99.90
2017-11-01T19:48:48.762Z,99.90
2017-11-01T19:51:16.186Z,99.90
2017-11-01T19:53:43.590Z,99.90
2017-11-01T19:56:11.005Z,99.90
2017-11-01T19:58:38.421Z,99.90
2017-11-01T20:01:06.606Z,99.90
2017-11-01T20:03:34.930Z,99.90
2017-11-01T20:06:02.342Z,99.90
2017-11-01T20:08:29.752Z,99.90
2017-11-01T20:10:58.661Z,99.90
2017-11-01T20:13:26.882Z,99.90
2017-11-01T20:15:54.285Z,99.90
2017-11-01T20:18:21.706Z,99.90
2017-11-01T20:20:49.118Z,99.90
2017-11-01T20:23:17.293Z,99.90
2017-11-01T20:25:45.469Z,99.90
2017-11-01T20:28:12.883Z,99.90
2017-11-01T20:30:40.300Z,99.90
2017-11-01T20:33:07.734Z,99.90
2017-11-01T20:35:35.914Z,99.90
2017-11-01T20:38:03.315Z,99.90
2017-11-01T20:40:30.738Z,99.90
2017-11-01T20:42:58.152Z,99.90
2017-11-01T20:45:25.563Z,99.90
2017-11-01T20:47:52.964Z,99.90
2017-11-01T20:50:20.375Z,99.90
2017-11-01T20:52:47.799Z,99.90
2017-11-01T20:55:15.973Z,99.90
2017-11-01T20:57:44.154Z,99.90
2017-11-01T21:00:11.585Z,99.90
2017-11-01T21:02:39.745Z,99.90
2017-11-01T21:05:08.669Z,99.90
2017-11-01T21:07:36.085Z,99.90
2017-11-01T21:10:03.507Z,99.90
2017-11-01T21:12:30.919Z,99.90
2017-11-01T21:14:59.117Z,99.90
2017-11-01T21:17:27.281Z,99.90
2017-11-01T21:19:55.457Z,99.90
2017-11-01T21:22:23.634Z,99.90
2017-11-01T21:24:51.053Z,99.90
2017-11-01T21:27:18.460Z,99.90
2017-11-01T21:29:45.869Z,99.90
2017-11-01T21:32:13.269Z,99.90
2017-11-01T21:34:40.681Z,99.90
2017-11-01T21:37:08.098Z,99.90
2017-11-01T21:39:35.508Z,99.90
2017-11-01T21:42:02.910Z,99.90
2017-11-01T21:44:30.338Z,99.90
2017-11-01T21:46:57.749Z,99.90
2017-11-01T21:49:25.161Z,99.90
2017-11-01T21:51:52.578Z,99.90
2017-11-01T21:54:19.989Z,99.90
2017-11-01T21:56:47.406Z,99.90
2017-11-01T21:59:15.577Z,99.90
2017-11-01T22:01:43.760Z,99.90
2017-11-01T22:04:11.946Z,99.90
2017-11-01T22:06:39.354Z,99.90
2017-11-01T22:09:06.761Z,99.90
2017-11-01T22:11:34.174Z,99.90
2017-11-01T22:14:01.626Z,99.90
2017-11-01T22:16:29.033Z,99.90
2017-11-01T22:18:57.130Z,99.90
2017-11-01T22:21:24.547Z,99.90
2017-11-01T22:23:52.734Z,99.90
2017-11-01T22:26:20.141Z,99.90
2017-11-01T22:28:47.562Z,99.90
2017-11-01T22:31:14.966Z,99.90
2017-11-01T22:33:42.384Z,99.90
2017-11-01T22:36:10.565Z,99.90
2017-11-01T22:38:37.979Z,99.90
2017-11-01T22:41:05.390Z,99.90
2017-11-01T22:43:32.813Z,99.90
2017-11-01T22:46:00.218Z,99.90
2017-11-01T22:48:27.637Z,99.90
2017-11-01T22:50:55.045Z,99.90
2017-11-01T22:53:23.234Z,99.90
2017-11-01T22:55:50.642Z,99.90
2017-11-01T22:58:18.067Z,99.90
2017-11-01T23:00:45.470Z,99.90
2017-11-01T23:03:12.892Z,99.90
2017-11-01T23:05:40.302Z,99.90
2017-11-01T23:08:08.478Z,99.90
2017-11-01T23:10:36.649Z,99.90
2017-11-01T23:13:04.838Z,99.90
2017-11-01T23:15:32.248Z,99.90
2017-11-01T23:17:59.654Z,99.90
2017-11-01T23:20:27.065Z,99.90
2017-11-01T23:22:54.481Z,99.90
2017-11-01T23:25:21.885Z,99.90
2017-11-01T23:27:49.299Z,99.90
2017-11-01T23:30:16.705Z,99.90
2017-11-01T23:32:44.886Z,99.90
2017-11-01T23:35:13.073Z,99.90
2017-11-01T23:37:40.470Z,99.90
2017-11-01T23:40:07.887Z,99.90
2017-11-01T23:42:35.302Z,99.90
2017-11-01T23:45:03.483Z,99.90
2017-11-01T23:47:32.402Z,99.90
2017-11-01T23:49:59.811Z,99.90
2017-11-01T23:52:27.236Z,99.90
2017-11-01T23:54:54.642Z,99.90
2017-11-01T23:57:22.053Z,99.90
2017-11-01T23:59:49.464Z,99.90
